Time;durP1;ratioP1;P1;durP2;ratioP2;P2;SDS_P1;SDS_P2;PMS_P1;PMS_P2;Temp;Humidity;BMP_temperature;BMP_pressure;BME280_temperature;BME280_humidity;BME280_pressure;Samples;Min_cycle;Max_cycle;Signal;HPM_P1;HPM_P2
2023/04/16 00:01:55;;;;;;;8.90;7.40;;;;;;;8.01;85.19;99932.58;102937;1257;138517;-71
2023/04/16 00:04:39;;;;;;;11.20;7.90;;;;;;;8.02;85.44;99940.16;103001;1258;98464;-71
2023/04/16 00:07:13;;;;;;;10.00;7.60;;;;;;;8.01;85.48;99941.05;102948;1258;137979;-71
2023/04/16 00:09:50;;;;;;;10.00;7.80;;;;;;;8.01;85.53;99939.15;103034;1260;97783;-72
2023/04/16 00:12:34;;;;;;;11.70;8.00;;;;;;;8.03;85.63;99943.25;103016;1259;138011;-70
2023/04/16 00:14:57;;;;;;;10.60;8.00;;;;;;;8.02;85.40;99940.52;103107;1259;107651;-71
2023/04/16 00:17:24;;;;;;;9.80;8.10;;;;;;;8.01;85.63;99935.71;103118;1263;97826;-71
2023/04/16 00:19:58;;;;;;;10.70;8.70;;;;;;;8.00;85.86;99932.80;103027;1258;137736;-71
2023/04/16 00:22:34;;;;;;;10.70;8.80;;;;;;;7.98;85.79;99929.56;103154;1258;97790;-71
2023/04/16 00:25:09;;;;;;;10.30;8.50;;;;;;;7.97;85.76;99933.39;103060;1258;138064;-72
2023/04/16 00:27:33;;;;;;;12.60;9.80;;;;;;;7.97;85.83;99928.20;103454;1257;108177;-73
2023/04/16 00:30:08;;;;;;;12.90;10.40;;;;;;;7.98;85.99;99930.23;103025;1263;138876;-72
2023/04/16 00:32:51;;;;;;;12.60;9.60;;;;;;;7.98;86.15;99935.95;103814;1256;108282;-72
2023/04/16 00:35:18;;;;;;;14.80;10.70;;;;;;;7.97;86.10;99935.99;103119;1257;98113;-72
2023/04/16 00:37:53;;;;;;;13.50;10.70;;;;;;;7.95;86.26;99940.02;103544;1260;138609;-71
2023/04/16 00:40:37;;;;;;;12.40;10.70;;;;;;;7.98;86.46;99942.19;104392;1255;109398;-71
2023/04/16 00:43:01;;;;;;;13.20;9.80;;;;;;;8.03;86.65;99941.02;103183;1257;138545;-71
2023/04/16 00:45:31;;;;;;;12.80;10.10;;;;;;;8.06;86.57;99940.77;103084;1258;107779;-71
2023/04/16 00:48:05;;;;;;;17.10;10.10;;;;;;;8.11;86.63;99943.06;103046;1258;138825;-70
2023/04/16 00:50:38;;;;;;;11.20;9.70;;;;;;;8.15;86.43;99937.56;103309;1261;112061;-71
2023/04/16 00:53:21;;;;;;;12.20;9.80;;;;;;;8.19;86.60;99931.91;103142;1258;108240;-70
2023/04/16 00:55:56;;;;;;;10.00;8.90;;;;;;;8.25;86.37;99934.19;103015;1260;138038;-70
2023/04/16 00:58:31;;;;;;;14.90;9.50;;;;;;;8.29;86.35;99936.33;104380;1257;108013;-71
2023/04/16 01:00:55;;;;;;;11.40;9.00;;;;;;;8.31;86.16;99936.27;103213;1260;138481;-71
2023/04/16 01:03:42;;;;;;;11.90;8.20;;;;;;;8.35;86.08;99934.80;104245;1258;111166;-71
2023/04/16 01:06:06;;;;;;;9.30;8.30;;;;;;;8.40;86.10;99935.17;103886;1260;138368;-71
2023/04/16 01:08:30;;;;;;;9.00;7.80;;;;;;;8.44;86.01;99935.40;103220;1258;97874;-71
2023/04/16 01:11:15;;;;;;;9.20;7.00;;;;;;;8.48;85.83;99940.85;103174;1260;107831;-71
2023/04/16 01:13:41;;;;;;;11.20;7.20;;;;;;;8.51;85.79;99942.49;103518;1257;138795;-71
2023/04/16 01:16:11;;;;;;;9.50;7.10;;;;;;;8.54;85.56;99941.54;103113;1257;111922;-71
2023/04/16 01:18:49;;;;;;;9.40;7.10;;;;;;;8.57;85.40;99942.50;102974;1259;137978;-71
2023/04/16 01:21:32;;;;;;;10.00;6.40;;;;;;;8.59;85.34;99944.52;103152;1257;97662;-71
2023/04/16 01:24:04;;;;;;;9.40;6.10;;;;;;;8.58;84.99;99945.41;102990;1260;138196;-71
2023/04/16 01:26:35;;;;;;;8.00;6.30;;;;;;;8.55;84.78;99943.08;103146;1257;97794;-71
2023/04/16 01:29:20;;;;;;;7.70;6.30;;;;;;;8.52;84.93;99941.59;103092;1260;111797;-72
2023/04/16 01:32:05;;;;;;;7.50;6.10;;;;;;;8.48;84.87;99938.25;103114;1258;108071;-71
2023/04/16 01:34:43;;;;;;;7.80;6.00;;;;;;;8.46;84.92;99938.66;103570;1258;97701;-71
2023/04/16 01:37:27;;;;;;;8.20;6.60;;;;;;;8.43;84.89;99940.63;102791;1257;137806;-72
2023/04/16 01:40:08;;;;;;;8.10;7.00;;;;;;;8.43;85.00;99941.31;103768;1258;96766;-71
2023/04/16 01:42:32;;;;;;;7.50;6.70;;;;;;;8.42;85.06;99942.38;103973;1257;137839;-72
2023/04/16 01:44:55;;;;;;;8.50;6.70;;;;;;;8.42;84.93;99942.36;103097;1256;108194;-72
2023/04/16 01:47:19;;;;;;;7.80;6.40;;;;;;;8.42;84.92;99943.23;103152;1260;98079;-72
2023/04/16 01:49:44;;;;;;;9.30;6.90;;;;;;;8.43;84.91;99950.68;103010;1258;138335;-73
2023/04/16 01:52:07;;;;;;;8.40;6.40;;;;;;;8.44;85.03;99939.56;103762;1260;97798;-71
2023/04/16 01:54:31;;;;;;;9.20;6.80;;;;;;;8.47;84.99;99942.78;103035;1257;137951;-73
2023/04/16 01:57:05;;;;;;;8.70;7.00;;;;;;;8.47;84.85;99946.57;103077;1256;107749;-70
2023/04/16 01:59:49;;;;;;;7.90;6.50;;;;;;;8.44;84.74;99944.08;103016;1260;138311;-71
2023/04/16 02:02:34;;;;;;;8.80;7.00;;;;;;;8.41;84.53;99944.48;103205;1253;109000;-71
2023/04/16 02:05:19;;;;;;;10.70;7.50;;;;;;;8.39;84.75;99949.23;103143;1256;97773;-71
2023/04/16 02:07:54;;;;;;;10.10;7.60;;;;;;;8.35;84.70;99953.66;104425;1255;138015;-72
2023/04/16 02:10:17;;;;;;;9.00;8.10;;;;;;;8.32;84.76;99956.67;103968;1255;107370;-72
2023/04/16 02:12:50;;;;;;;9.80;8.40;;;;;;;8.32;84.93;99958.94;103079;1256;138119;-71
2023/04/16 02:15:15;;;;;;;10.90;9.70;;;;;;;8.31;84.88;99960.52;103212;1260;108273;-71
2023/04/16 02:17:39;;;;;;;10.10;9.10;;;;;;;8.29;84.82;99966.48;103291;1256;97801;-71
2023/04/16 02:20:09;;;;;;;11.70;9.80;;;;;;;8.24;84.90;99971.45;103320;1256;112250;-71
2023/04/16 02:22:48;;;;;;;10.40;9.40;;;;;;;8.22;84.99;99970.45;103584;1255;107873;-72
2023/04/16 02:25:16;;;;;;;11.30;9.20;;;;;;;8.18;84.97;99970.56;103120;1256;138382;-72
2023/04/16 02:27:40;;;;;;;10.50;9.40;;;;;;;8.14;85.14;99972.08;103174;1256;108417;-72
2023/04/16 02:30:17;;;;;;;13.30;9.80;;;;;;;8.09;85.20;99970.30;103085;1256;138300;-71
2023/04/16 02:32:42;;;;;;;;;;;;;;;8.06;85.41;99968.10;103167;1256;112270;-71
2023/04/16 02:35:09;;;;;;;14.30;10.50;;;;;;;8.05;85.45;99967.10;103112;1256;107985;-71
2023/04/16 02:37:36;;;;;;;12.20;10.20;;;;;;;8.02;85.58;99968.39;102997;1256;138309;-71
2023/04/16 02:40:14;;;;;;;11.30;9.70;;;;;;;7.97;85.70;99972.00;103145;1256;108148;-70
2023/04/16 02:42:49;;;;;;;11.20;10.10;;;;;;;7.91;85.62;99974.92;104406;1255;138565;-71
2023/04/16 02:45:13;;;;;;;11.90;10.20;;;;;;;7.85;85.96;99980.41;104509;1256;113224;-71
2023/04/16 02:47:36;;;;;;;11.10;9.90;;;;;;;7.78;85.99;99991.85;103578;1255;108999;-71
2023/04/16 02:50:07;;;;;;;11.50;10.30;;;;;;;7.70;86.20;99987.72;103224;1254;138075;-71
2023/04/16 02:52:42;;;;;;;12.50;10.60;;;;;;;7.64;86.46;99993.59;103264;1256;107097;-71
2023/04/16 02:55:27;;;;;;;11.50;10.20;;;;;;;7.58;86.61;99998.05;103150;1256;138894;-71
2023/04/16 02:57:53;;;;;;;13.60;10.40;;;;;;;7.55;86.62;99999.52;104529;1255;113018;-72
2023/04/16 03:00:17;;;;;;;11.90;10.50;;;;;;;7.55;86.77;100002.80;103926;1255;138579;-70
2023/04/16 03:02:49;;;;;;;13.90;11.10;;;;;;;7.57;86.86;100003.63;103458;1256;97838;-71
2023/04/16 03:05:14;;;;;;;12.90;11.50;;;;;;;7.58;86.80;100002.57;103971;1258;108807;-71
2023/04/16 03:07:49;;;;;;;14.40;11.60;;;;;;;7.59;86.92;100005.84;103051;1256;138578;-71
2023/04/16 03:10:35;;;;;;;15.00;12.30;;;;;;;7.58;86.96;100007.23;103183;1256;112279;-70
2023/04/16 03:13:01;;;;;;;16.30;11.70;;;;;;;7.56;86.96;100010.06;102953;1260;138597;-71
2023/04/16 03:15:38;;;;;;;18.00;13.80;;;;;;;7.55;87.50;100017.34;103143;1256;97719;-71
2023/04/16 03:18:16;;;;;;;15.90;12.10;;;;;;;7.49;87.63;100014.34;103457;1256;138529;-71
2023/04/16 03:20:40;;;;;;;16.50;12.40;;;;;;;7.46;87.61;100016.17;103388;1256;97820;-71
2023/04/16 03:23:25;;;;;;;16.40;12.90;;;;;;;7.42;88.17;100016.25;103105;1256;113067;-68
2023/04/16 03:25:57;;;;;;;17.30;13.30;;;;;;;7.37;88.33;100014.65;103016;1256;138411;-70
2023/04/16 03:28:41;;;;;;;17.60;13.20;;;;;;;7.33;88.20;100008.51;103452;1256;97830;-70
2023/04/16 03:31:26;;;;;;;17.50;13.80;;;;;;;7.33;88.29;100007.98;103019;1256;138329;-71
2023/04/16 03:33:55;;;;;;;22.90;15.30;;;;;;;7.33;88.81;100013.69;103103;1256;97823;-71
2023/04/16 03:36:18;;;;;;;18.60;13.60;;;;;;;7.32;88.79;100010.25;103048;1256;138750;-70
2023/04/16 03:38:49;;;;;;;18.10;13.50;;;;;;;7.32;88.70;100010.59;103040;1260;107208;-71
2023/04/16 03:41:18;;;;;;;19.30;14.70;;;;;;;7.31;89.13;100014.08;103133;1256;97799;-70
2023/04/16 03:43:54;;;;;;;19.10;14.40;;;;;;;7.26;89.32;100014.53;102988;1260;138526;-71
2023/04/16 03:46:18;;;;;;;16.90;12.80;;;;;;;7.25;88.91;100012.66;103689;1256;97864;-72
2023/04/16 03:48:44;;;;;;;20.20;14.80;;;;;;;7.25;89.50;100019.39;103024;1259;138472;-71
2023/04/16 03:51:08;;;;;;;22.40;15.00;;;;;;;7.24;89.50;100019.60;103126;1259;107849;-70
2023/04/16 03:53:32;;;;;;;19.60;15.10;;;;;;;7.24;89.79;100022.55;103127;1256;97684;-71
2023/04/16 03:55:59;;;;;;;16.80;13.80;;;;;;;7.23;89.67;100027.05;104339;1255;138094;-71
2023/04/16 03:58:23;;;;;;;21.30;13.80;;;;;;;7.22;89.75;100028.81;104434;1260;95726;-71
2023/04/16 04:00:47;;;;;;;23.50;15.60;;;;;;;7.21;89.92;100026.41;104314;1256;138497;-71
2023/04/16 04:03:11;;;;;;;18.70;14.50;;;;;;;7.21;89.90;100031.95;104374;1256;107053;-71
2023/04/16 04:05:38;;;;;;;20.70;15.00;;;;;;;7.21;90.06;100030.75;104454;1258;96104;-69
2023/04/16 04:08:02;;;;;;;20.00;14.50;;;;;;;7.20;89.68;100029.54;104161;1258;138866;-69
2023/04/16 04:10:26;;;;;;;19.30;14.30;;;;;;;7.23;89.71;100033.11;103114;1260;97710;-69
2023/04/16 04:12:53;;;;;;;20.10;15.00;;;;;;;7.26;89.63;100030.63;102986;1256;138311;-68
2023/04/16 04:15:17;;;;;;;21.80;16.00;;;;;;;7.31;89.83;100029.14;104405;1256;107268;-68
2023/04/16 04:17:40;;;;;;;19.10;15.60;;;;;;;7.32;89.53;100033.77;103662;1255;96731;-68
2023/04/16 04:20:24;;;;;;;20.70;15.90;;;;;;;7.36;89.43;100036.11;103108;1256;108953;-68
2023/04/16 04:23:08;;;;;;;21.70;15.90;;;;;;;7.37;89.12;100036.44;103067;1256;97743;-68
2023/04/16 04:25:35;;;;;;;20.00;14.90;;;;;;;7.40;89.08;100041.05;103043;1256;138514;-69
2023/04/16 04:28:19;;;;;;;18.60;14.40;;;;;;;7.39;89.25;100043.32;103335;1260;108044;-69
2023/04/16 04:30:55;;;;;;;;;;;;;;;7.40;89.16;100044.52;102996;1256;138680;-68
2023/04/16 04:33:39;;;;;;;19.70;15.00;;;;;;;7.38;89.18;100050.42;103112;1256;108174;-68
2023/04/16 04:36:06;;;;;;;20.40;15.10;;;;;;;7.38;88.96;100055.45;103004;1256;138657;-69
2023/04/16 04:38:50;;;;;;;19.60;15.20;;;;;;;7.40;88.78;100055.93;103383;1256;111381;-69
2023/04/16 04:41:28;;;;;;;23.20;15.60;;;;;;;7.42;88.52;100055.17;103477;1257;107371;-68
2023/04/16 04:43:52;;;;;;;21.20;15.90;;;;;;;7.45;88.47;100054.92;103832;1255;138438;-69
2023/04/16 04:46:16;;;;;;;20.00;15.40;;;;;;;7.50;88.48;100056.19;103110;1260;109477;-68
2023/04/16 04:48:40;;;;;;;18.40;14.70;;;;;;;7.56;88.41;100058.67;102984;1256;138815;-69
2023/04/16 04:51:05;;;;;;;19.20;14.50;;;;;;;7.62;88.40;100059.56;103133;1256;111252;-69
2023/04/16 04:53:28;;;;;;;20.40;16.20;;;;;;;7.71;88.33;100058.48;103182;1256;107501;-69
2023/04/16 04:55:52;;;;;;;18.50;15.60;;;;;;;7.77;88.04;100060.41;103012;1256;138759;-70
2023/04/16 04:58:32;;;;;;;21.10;15.70;;;;;;;7.83;87.84;100065.80;103120;1256;108934;-69
2023/04/16 05:01:05;;;;;;;18.80;14.90;;;;;;;7.88;87.65;100067.94;102968;1257;139114;-69
2023/04/16 05:03:33;;;;;;;19.10;15.10;;;;;;;7.92;87.42;100069.26;103112;1256;112812;-69
2023/04/16 05:06:17;;;;;;;20.90;16.60;;;;;;;7.96;87.25;100070.89;102993;1256;138721;-69
2023/04/16 05:09:01;;;;;;;20.90;15.20;;;;;;;8.00;87.23;100070.43;102725;1261;97866;-69
2023/04/16 05:11:45;;;;;;;17.20;14.30;;;;;;;8.04;86.96;100075.18;102706;1261;108821;-69
2023/04/16 05:14:09;;;;;;;16.10;13.60;;;;;;;8.07;86.84;100076.66;103126;1262;138287;-69
2023/04/16 05:16:35;;;;;;;18.00;13.80;;;;;;;8.11;86.65;100085.05;102720;1262;110481;-69
2023/04/16 05:18:58;;;;;;;;;;;;;;;8.14;86.48;100085.50;102378;1262;291406;-69
2023/04/16 05:21:21;;;;;;;14.90;13.10;;;;;;;8.15;86.36;100084.09;102696;1262;98456;-69
2023/04/16 05:23:45;;;;;;;14.90;12.70;;;;;;;8.13;86.08;100081.70;104066;1261;107966;-70
2023/04/16 05:26:08;;;;;;;16.20;12.70;;;;;;;8.14;85.97;100083.25;103239;1260;138298;-69
2023/04/16 05:28:45;;;;;;;16.00;12.90;;;;;;;8.15;85.90;100085.29;102703;1260;111842;-69
2023/04/16 05:31:12;;;;;;;13.40;11.60;;;;;;;8.17;85.72;100086.29;102564;1262;138580;-69
2023/04/16 05:33:56;;;;;;;14.00;11.60;;;;;;;8.19;85.78;100084.84;102697;1261;98382;-68
2023/04/16 05:36:40;;;;;;;15.20;12.00;;;;;;;8.24;85.67;100091.81;102596;1260;138832;-69
2023/04/16 05:39:24;;;;;;;15.00;11.70;;;;;;;8.28;85.60;100096.77;104216;1256;96171;-70
2023/04/16 05:41:53;;;;;;;13.20;10.60;;;;;;;8.30;85.33;100100.52;104026;1256;138503;-69
2023/04/16 05:44:20;;;;;;;14.90;11.30;;;;;;;8.29;85.17;100101.73;103288;1256;107957;-69
2023/04/16 05:46:52;;;;;;;15.90;11.40;;;;;;;8.31;85.11;100099.61;103189;1256;97779;-69
2023/04/16 05:49:27;;;;;;;14.10;10.90;;;;;;;8.35;85.07;100094.33;103011;1256;138498;-69
2023/04/16 05:52:11;;;;;;;15.90;13.00;;;;;;;8.42;85.05;100097.27;103706;1256;97836;-68
2023/04/16 05:54:56;;;;;;;12.90;11.30;;;;;;;8.46;84.55;100097.89;103019;1256;138453;-69
2023/04/16 05:57:32;;;;;;;14.70;11.20;;;;;;;8.46;84.27;100100.66;103239;1256;107744;-69
2023/04/16 06:00:17;;;;;;;12.70;10.70;;;;;;;8.49;84.05;100112.02;104355;1256;138789;-69
2023/04/16 06:02:46;;;;;;;13.80;11.80;;;;;;;8.51;83.73;100113.86;104015;1256;106759;-69
2023/04/16 06:05:21;;;;;;;15.20;11.00;;;;;;;8.55;83.17;100119.48;103187;1260;97794;-70
2023/04/16 06:08:05;;;;;;;13.50;11.50;;;;;;;8.55;82.70;100119.48;103042;1256;138248;-69
2023/04/16 06:10:34;;;;;;;13.20;11.50;;;;;;;8.56;82.59;100122.39;103139;1260;108097;-69
2023/04/16 06:13:01;;;;;;;13.90;11.40;;;;;;;8.58;82.62;100128.05;103055;1256;138470;-69
2023/04/16 06:15:45;;;;;;;15.00;11.30;;;;;;;8.58;82.39;100124.61;103139;1260;107944;-70
2023/04/16 06:18:29;;;;;;;13.10;11.00;;;;;;;8.57;82.39;100126.19;103091;1256;138707;-69
2023/04/16 06:21:12;;;;;;;14.50;11.90;;;;;;;8.60;82.27;100127.14;103093;1256;110764;-69
2023/04/16 06:23:56;;;;;;;15.80;11.80;;;;;;;8.58;81.86;100129.77;104295;1256;138851;-70
2023/04/16 06:26:20;;;;;;;14.40;11.50;;;;;;;8.54;82.00;100132.50;104254;1255;96063;-69
2023/04/16 06:28:47;;;;;;;14.40;12.30;;;;;;;8.52;82.11;100133.08;103138;1256;108753;-70
2023/04/16 06:31:31;;;;;;;14.00;12.40;;;;;;;8.51;82.12;100133.98;103041;1256;138530;-70
2023/04/16 06:34:16;;;;;;;15.90;13.30;;;;;;;8.53;82.13;100140.15;103115;1260;111362;-70
2023/04/16 06:36:40;;;;;;;15.80;13.50;;;;;;;8.52;82.10;100140.70;103930;1256;139040;-67
2023/04/16 06:39:05;;;;;;;;;;;;;;;8.54;82.15;100138.56;103418;1260;98175;-68
2023/04/16 06:41:39;;;;;;;14.90;12.50;;;;;;;8.58;82.15;100138.98;103137;1256;108350;-69
2023/04/16 06:44:18;;;;;;;16.40;13.70;;;;;;;8.61;81.81;100131.79;103417;1255;97780;-68
2023/04/16 06:47:02;;;;;;;15.10;13.50;;;;;;;8.66;81.80;100133.95;103086;1256;111891;-69
2023/04/16 06:49:28;;;;;;;14.80;13.00;;;;;;;8.73;81.70;100140.86;102976;1261;138597;-68
2023/04/16 06:52:12;;;;;;;16.80;13.50;;;;;;;8.79;81.39;100138.61;103081;1255;98543;-69
2023/04/16 06:54:42;;;;;;;15.20;12.90;;;;;;;8.84;81.22;100134.14;102909;1260;138366;-68
2023/04/16 06:57:10;;;;;;;12.60;11.30;;;;;;;8.91;81.35;100139.83;103121;1256;97772;-69
2023/04/16 06:59:54;;;;;;;12.30;11.10;;;;;;;9.01;81.42;100137.99;103110;1256;110609;-68
2023/04/16 07:02:18;;;;;;;11.90;10.30;;;;;;;9.11;81.41;100141.71;103064;1261;107371;-69
2023/04/16 07:04:47;;;;;;;12.00;10.60;;;;;;;9.20;81.06;100139.40;104471;1256;96044;-70
2023/04/16 07:07:11;;;;;;;13.30;10.50;;;;;;;9.27;80.72;100143.70;103586;1260;138467;-68
2023/04/16 07:09:44;;;;;;;11.40;10.00;;;;;;;9.33;80.33;100144.91;103149;1256;97822;-70
2023/04/16 07:12:28;;;;;;;12.00;10.40;;;;;;;9.39;80.11;100148.40;103075;1261;139145;-69
2023/04/16 07:15:12;;;;;;;11.80;10.20;;;;;;;9.44;79.72;100150.67;103125;1260;108180;-70
2023/04/16 07:17:56;;;;;;;12.30;9.90;;;;;;;9.47;79.45;100148.83;103107;1256;98837;-70
2023/04/16 07:20:27;;;;;;;12.40;10.80;;;;;;;9.52;79.49;100154.44;103133;1256;108602;-70
2023/04/16 07:22:51;;;;;;;11.30;10.10;;;;;;;9.58;79.30;100152.35;103089;1256;97794;-70
2023/04/16 07:25:24;;;;;;;11.50;10.20;;;;;;;9.61;78.99;100155.36;103000;1256;139470;-70
2023/04/16 07:27:59;;;;;;;12.20;10.70;;;;;;;9.63;78.59;100161.03;103166;1256;107606;-70
2023/04/16 07:30:33;;;;;;;13.00;10.10;;;;;;;9.66;78.54;100164.23;103051;1256;138902;-70
2023/04/16 07:33:08;;;;;;;11.80;9.90;;;;;;;9.70;78.59;100168.66;104339;1256;107933;-70
2023/04/16 07:35:35;;;;;;;10.20;9.20;;;;;;;9.75;78.34;100173.21;103110;1256;97804;-70
2023/04/16 07:38:08;;;;;;;11.20;10.00;;;;;;;9.78;78.17;100180.23;103686;1260;138227;-72
2023/04/16 07:40:44;;;;;;;13.00;9.50;;;;;;;9.80;77.80;100177.05;104436;1256;108192;-71
2023/04/16 07:43:08;;;;;;;11.50;10.30;;;;;;;9.77;77.52;100178.86;104361;1256;138486;-71
2023/04/16 07:45:32;;;;;;;11.60;9.70;;;;;;;9.77;77.30;100181.84;104387;1256;109868;-71
2023/04/16 07:47:56;;;;;;;12.30;10.90;;;;;;;9.74;77.14;100182.77;103306;1256;97826;-73
2023/04/16 07:50:42;;;;;;;14.50;12.10;;;;;;;9.67;76.74;100190.96;103014;1260;112225;-74
2023/04/16 07:53:06;;;;;;;13.90;10.70;;;;;;;9.59;76.79;100196.41;102993;1256;108484;-72
2023/04/16 07:55:50;;;;;;;11.40;10.20;;;;;;;9.54;76.80;100194.81;103226;1256;140598;-73
2023/04/16 07:58:14;;;;;;;11.70;10.50;;;;;;;9.48;76.72;100194.64;103010;1256;107891;-73
2023/04/16 08:00:48;;;;;;;11.40;10.30;;;;;;;9.44;76.83;100196.82;103532;1256;138894;-73
2023/04/16 08:03:17;;;;;;;11.40;10.20;;;;;;;9.41;76.78;100199.53;103071;1260;111788;-72
2023/04/16 08:05:52;;;;;;;12.90;11.20;;;;;;;9.45;77.09;100203.74;103391;1256;107222;-74
2023/04/16 08:08:19;;;;;;;13.60;12.10;;;;;;;9.47;76.86;100206.13;102843;1259;138533;-70
2023/04/16 08:10:54;;;;;;;13.30;11.80;;;;;;;9.46;76.82;100211.86;103016;1261;107542;-72
2023/04/16 08:13:29;;;;;;;13.90;12.50;;;;;;;9.46;76.87;100217.09;103880;1258;139607;-72
2023/04/16 08:15:56;;;;;;;13.10;11.80;;;;;;;9.46;76.72;100219.33;103850;1260;111322;-69
2023/04/16 08:18:19;;;;;;;14.80;12.40;;;;;;;9.46;76.75;100222.45;103443;1256;138940;-70
2023/04/16 08:20:56;;;;;;;14.60;13.10;;;;;;;9.46;76.68;100223.50;103103;1256;97051;-71
2023/04/16 08:23:23;;;;;;;15.20;13.70;;;;;;;9.47;76.78;100225.03;103044;1258;107519;-70
2023/04/16 08:26:07;;;;;;;13.80;12.30;;;;;;;9.49;76.80;100224.79;102937;1256;138697;-71
2023/04/16 08:28:41;;;;;;;15.10;13.00;;;;;;;9.51;76.78;100224.91;103094;1260;112189;-70
2023/04/16 08:31:05;;;;;;;14.70;12.60;;;;;;;9.53;76.69;100224.70;102955;1260;138681;-70
2023/04/16 08:33:28;;;;;;;14.50;12.90;;;;;;;9.52;76.77;100224.74;103070;1259;98450;-70
2023/04/16 08:36:12;;;;;;;11.70;10.30;;;;;;;9.56;76.73;100227.92;104301;1256;138546;-69
2023/04/16 08:38:36;;;;;;;10.70;9.50;;;;;;;9.54;76.35;100230.40;104358;1256;97071;-71
2023/04/16 08:41:04;;;;;;;13.50;10.60;;;;;;;9.50;76.27;100230.51;103525;1256;112097;-71
2023/04/16 08:43:50;;;;;;;11.20;10.00;;;;;;;9.49;76.45;100232.10;104274;1256;139449;-72
2023/04/16 08:46:16;;;;;;;11.20;9.90;;;;;;;9.50;76.50;100231.71;104450;1256;97615;-71
2023/04/16 08:48:43;;;;;;;11.30;10.10;;;;;;;9.57;76.68;100233.29;103613;1256;138479;-69
2023/04/16 08:51:10;;;;;;;11.40;10.20;;;;;;;9.65;76.61;100232.84;103124;1256;97811;-69
2023/04/16 08:53:47;;;;;;;14.70;11.40;;;;;;;9.82;76.64;100236.88;103098;1256;112164;-70
2023/04/16 08:56:12;;;;;;;12.20;10.80;;;;;;;9.95;76.11;100237.73;104267;1260;139076;-71
2023/04/16 08:58:39;;;;;;;11.40;10.20;;;;;;;10.08;76.04;100234.89;104383;1256;96128;-71
2023/04/16 09:01:04;;;;;;;12.10;10.90;;;;;;;10.23;75.93;100235.67;104328;1256;142121;-71
2023/04/16 09:03:28;;;;;;;11.40;10.20;;;;;;;10.40;75.61;100234.46;104338;1256;96001;-72
2023/04/16 09:05:54;;;;;;;12.20;10.50;;;;;;;10.57;75.60;100235.66;104438;1256;110332;-72
2023/04/16 09:08:19;;;;;;;12.40;10.10;;;;;;;10.74;75.41;100238.21;104198;1258;139110;-73
2023/04/16 09:10:43;;;;;;;11.30;9.60;;;;;;;10.90;75.15;100235.61;103873;1256;97616;-72
2023/04/16 09:13:08;;;;;;;11.30;9.90;;;;;;;11.05;74.84;100237.55;102853;1261;138807;-73
2023/04/16 09:15:33;;;;;;;11.60;9.20;;;;;;;11.17;74.20;100237.79;103027;1261;97804;-73
2023/04/16 09:18:01;;;;;;;10.10;9.10;;;;;;;11.24;73.15;100237.73;102790;1260;138683;-73
2023/04/16 09:20:25;;;;;;;11.60;9.90;;;;;;;11.23;72.56;100235.86;102879;1261;108767;-70
2023/04/16 09:22:51;;;;;;;10.30;8.80;;;;;;;11.19;72.42;100244.01;103016;1256;97822;-73
2023/04/16 09:25:15;;;;;;;10.00;9.00;;;;;;;11.18;72.43;100242.98;102843;1260;138821;-72
2023/04/16 09:27:43;;;;;;;11.20;9.60;;;;;;;11.21;72.41;100246.38;104385;1256;98118;-72
2023/04/16 09:30:21;;;;;;;9.80;8.70;;;;;;;11.24;72.12;100244.69;104322;1256;138728;-72
2023/04/16 09:32:44;;;;;;;9.30;8.30;;;;;;;11.26;71.96;100247.59;103220;1256;110084;-73
2023/04/16 09:35:09;;;;;;;10.20;9.10;;;;;;;11.29;71.77;100248.35;102912;1259;98428;-72
2023/04/16 09:37:33;;;;;;;10.90;9.80;;;;;;;11.31;71.67;100251.08;102818;1261;138869;-71
2023/04/16 09:39:58;;;;;;;10.50;9.40;;;;;;;11.34;71.63;100257.58;103073;1259;97826;-70
2023/04/16 09:42:24;;;;;;;9.40;8.40;;;;;;;11.38;71.59;100260.73;102996;1256;138648;-72
2023/04/16 09:44:51;;;;;;;12.40;10.20;;;;;;;11.41;71.55;100264.10;103276;1256;107623;-71
2023/04/16 09:47:14;;;;;;;11.30;9.60;;;;;;;11.46;71.44;100263.23;103530;1256;97800;-71
2023/04/16 09:49:59;;;;;;;11.60;10.20;;;;;;;11.52;71.24;100263.58;102765;1260;138481;-70
2023/04/16 09:52:25;;;;;;;12.10;9.70;;;;;;;11.57;71.22;100264.42;102986;1260;97689;-71
2023/04/16 09:54:51;;;;;;;10.60;9.30;;;;;;;11.66;71.41;100260.61;102889;1256;138491;-70
2023/04/16 09:57:17;;;;;;;10.50;9.40;;;;;;;11.78;71.40;100262.98;104371;1256;106511;-71
2023/04/16 09:59:40;;;;;;;;;;;;;;;11.91;71.29;100260.77;104375;1258;96025;-71
2023/04/16 10:02:03;;;;;;;11.40;9.70;;;;;;;12.02;70.89;100264.17;104187;1256;124862;-71
2023/04/16 10:04:47;;;;;;;11.20;9.40;;;;;;;12.14;70.60;100268.98;103001;1258;97796;-71
2023/04/16 10:07:21;;;;;;;11.10;10.00;;;;;;;12.21;70.02;100270.09;102871;1256;138474;-72
2023/04/16 10:09:48;;;;;;;10.70;9.60;;;;;;;12.26;69.75;100273.89;102946;1260;108716;-72
2023/04/16 10:12:15;;;;;;;10.50;8.60;;;;;;;12.29;69.35;100272.89;102798;1260;138910;-71
2023/04/16 10:14:39;;;;;;;9.20;8.30;;;;;;;12.33;69.58;100272.40;102893;1256;107720;-71
2023/04/16 10:17:23;;;;;;;9.90;8.60;;;;;;;12.40;69.40;100274.55;102974;1256;97787;-72
2023/04/16 10:20:09;;;;;;;11.40;9.80;;;;;;;12.46;69.09;100278.35;102810;1260;138257;-72
2023/04/16 10:22:45;;;;;;;7.80;7.10;;;;;;;12.48;68.84;100276.89;102772;1260;107274;-71
2023/04/16 10:25:13;;;;;;;8.80;7.90;;;;;;;12.48;68.69;100280.52;102809;1256;138547;-70
2023/04/16 10:27:40;;;;;;;40.70;28.10;;;;;;;12.51;68.72;100282.50;103091;1261;107905;-71
2023/04/16 10:30:26;;;;;;;10.50;9.30;;;;;;;12.55;68.84;100285.31;102875;1257;139033;-72
2023/04/16 10:32:52;;;;;;;9.40;8.40;;;;;;;12.59;68.87;100288.45;102975;1260;111168;-71
2023/04/16 10:35:19;;;;;;;10.50;8.50;;;;;;;12.63;68.76;100292.81;102935;1261;108833;-70
2023/04/16 10:37:44;;;;;;;10.70;9.60;;;;;;;12.69;68.83;100290.14;103239;1260;138688;-71
2023/04/16 10:40:24;;;;;;;10.20;9.10;;;;;;;12.77;68.61;100290.18;103680;1260;108957;-71
2023/04/16 10:42:55;;;;;;;8.90;8.00;;;;;;;12.86;68.54;100293.46;104252;1256;138796;-71
2023/04/16 10:45:26;;;;;;;10.30;8.60;;;;;;;12.96;68.34;100294.45;104307;1256;109306;-70
2023/04/16 10:47:50;;;;;;;9.60;8.20;;;;;;;13.09;68.33;100296.73;104328;1256;107743;-71
2023/04/16 10:50:16;;;;;;;9.50;8.10;;;;;;;13.20;67.64;100300.30;104272;1256;138308;-72
2023/04/16 10:52:40;;;;;;;8.70;7.90;;;;;;;13.30;67.32;100296.91;104305;1257;108240;-71
2023/04/16 10:55:05;;;;;;;9.80;8.10;;;;;;;13.41;67.01;100297.66;104236;1256;139219;-71
2023/04/16 10:57:30;;;;;;;11.10;8.50;;;;;;;13.51;66.86;100294.42;104372;1256;113655;-71
2023/04/16 10:59:55;;;;;;;9.10;8.10;;;;;;;13.64;66.59;100298.59;103743;1259;106888;-71
2023/04/16 11:02:29;;;;;;;9.40;7.90;;;;;;;13.76;66.45;100298.37;103146;1260;98326;-71
2023/04/16 11:04:56;;;;;;;8.20;7.40;;;;;;;13.86;65.63;100297.60;103043;1256;108475;-72
2023/04/16 11:07:30;;;;;;;8.60;7.80;;;;;;;13.94;65.38;100299.70;104277;1256;138106;-70
2023/04/16 11:09:56;;;;;;;9.90;8.80;;;;;;;14.01;65.21;100296.05;104419;1257;110439;-72
2023/04/16 11:12:21;;;;;;;16.70;11.10;;;;;;;14.08;64.91;100301.30;103392;1260;138070;-71
2023/04/16 11:14:48;;;;;;;9.90;8.50;;;;;;;14.17;64.84;100300.90;103100;1256;97746;-71
2023/04/16 11:17:11;;;;;;;9.30;7.90;;;;;;;14.26;64.42;100301.54;104297;1256;108024;-71
2023/04/16 11:19:38;;;;;;;8.40;7.60;;;;;;;14.29;64.17;100303.30;103816;1256;137974;-71
2023/04/16 11:22:02;;;;;;;8.40;7.20;;;;;;;14.33;64.17;100303.98;103272;1260;111542;-71
2023/04/16 11:24:30;;;;;;;9.30;7.60;;;;;;;14.36;63.64;100314.38;103034;1258;137987;-72
2023/04/16 11:26:53;;;;;;;11.00;8.00;;;;;;;14.32;62.90;100313.47;104368;1257;95665;-72
2023/04/16 11:29:17;;;;;;;7.70;6.90;;;;;;;14.26;62.85;100309.08;104251;1256;112088;-71